createdAt,value
2023-01-29T00:00:23.917Z,26.65
2023-01-29T00:02:52.318Z,26.86
2023-01-29T00:05:27.795Z,26.90
2023-01-29T00:07:56.220Z,27.09
2023-01-29T00:10:24.105Z,26.80
2023-01-29T00:12:52.047Z,26.59
2023-01-29T00:15:21.008Z,26.84
2023-01-29T00:17:48.959Z,27.04
2023-01-29T00:20:17.550Z,27.00
2023-01-29T00:22:45.874Z,27.05
2023-01-29T00:25:13.862Z,27.16
2023-01-29T00:27:41.682Z,26.70
2023-01-29T00:30:13.334Z,26.87
2023-01-29T00:32:41.246Z,27.35
2023-01-29T00:35:09.139Z,27.38
2023-01-29T00:37:36.976Z,27.13
2023-01-29T00:40:05.041Z,27.49
2023-01-29T00:42:50.448Z,27.29
2023-01-29T00:45:18.303Z,27.25
2023-01-29T00:47:46.196Z,27.25
2023-01-29T00:50:14.400Z,27.37
2023-01-29T00:52:42.479Z,27.11
2023-01-29T00:55:10.331Z,27.22
2023-01-29T00:57:38.248Z,27.41
2023-01-29T01:00:06.301Z,27.35
2023-01-29T01:02:51.821Z,27.38
2023-01-29T01:05:19.944Z,26.98
2023-01-29T01:07:47.838Z,27.17
2023-01-29T01:10:24.426Z,27.06
2023-01-29T01:12:52.318Z,27.16
2023-01-29T01:15:20.333Z,27.43
2023-01-29T01:17:48.936Z,27.25
2023-01-29T01:20:17.161Z,27.17
2023-01-29T01:22:45.289Z,27.31
2023-01-29T01:25:13.192Z,27.15
2023-01-29T01:27:41.484Z,27.13
2023-01-29T01:30:09.479Z,27.29
2023-01-29T01:32:37.354Z,27.20
2023-01-29T01:35:05.272Z,27.40
2023-01-29T01:37:33.153Z,27.40
2023-01-29T01:40:01.099Z,27.28
2023-01-29T01:42:30.178Z,27.42
2023-01-29T01:44:58.787Z,27.22
2023-01-29T01:47:26.725Z,27.73
2023-01-29T01:49:54.668Z,27.59
2023-01-29T01:52:22.583Z,27.43
2023-01-29T01:54:50.437Z,27.53
2023-01-29T01:57:18.312Z,27.41
2023-01-29T01:59:46.166Z,27.41
2023-01-29T02:02:31.205Z,27.33
2023-01-29T02:05:16.561Z,27.33
2023-01-29T02:08:01.873Z,27.87
2023-01-29T02:10:29.776Z,27.93
2023-01-29T02:12:57.657Z,27.74
2023-01-29T02:15:25.632Z,27.43
2023-01-29T02:17:53.573Z,27.65
2023-01-29T02:20:24.390Z,27.78
2023-01-29T02:22:55.083Z,27.67
2023-01-29T02:25:23.034Z,27.32
2023-01-29T02:27:50.986Z,27.64
2023-01-29T02:30:19.229Z,27.60
2023-01-29T02:32:54.851Z,27.48
2023-01-29T02:35:29.896Z,27.68
2023-01-29T02:37:57.830Z,27.72
2023-01-29T02:40:25.738Z,27.70
2023-01-29T02:42:53.667Z,27.60
2023-01-29T02:45:21.568Z,27.79
2023-01-29T02:47:49.484Z,27.74
2023-01-29T02:50:17.716Z,27.77
2023-01-29T02:52:49.768Z,28.26
2023-01-29T02:55:17.665Z,27.77
2023-01-29T02:57:45.503Z,27.90
2023-01-29T03:00:13.506Z,27.98
2023-01-29T03:02:41.581Z,27.54
2023-01-29T03:05:10.385Z,27.73
2023-01-29T03:07:45.052Z,28.00
2023-01-29T03:10:13.312Z,27.51
2023-01-29T03:12:41.296Z,27.53
2023-01-29T03:15:16.765Z,28.02
2023-01-29T03:17:44.678Z,27.83
2023-01-29T03:20:13.645Z,27.87
2023-01-29T03:22:41.594Z,27.83
2023-01-29T03:25:27.008Z,27.77
2023-01-29T03:28:12.536Z,27.62
2023-01-29T03:30:58.249Z,27.56
2023-01-29T03:33:26.152Z,27.56
2023-01-29T03:35:54.045Z,27.61
2023-01-29T03:38:21.921Z,27.65
2023-01-29T03:40:49.803Z,27.59
2023-01-29T03:43:17.736Z,27.69
2023-01-29T03:45:45.661Z,27.62
2023-01-29T03:48:13.523Z,27.55
2023-01-29T03:50:41.479Z,27.56
2023-01-29T03:53:09.745Z,27.64
2023-01-29T03:55:37.610Z,28.06
2023-01-29T03:58:05.774Z,27.59
2023-01-29T04:00:33.623Z,27.63
2023-01-29T04:03:01.547Z,27.48
2023-01-29T04:05:29.387Z,27.83
2023-01-29T04:07:57.307Z,27.69
2023-01-29T04:10:25.214Z,27.68
2023-01-29T04:12:53.060Z,27.82
2023-01-29T04:15:20.927Z,27.94
2023-01-29T04:17:48.894Z,27.87
2023-01-29T04:20:17.010Z,28.23
2023-01-29T04:22:45.061Z,27.77
2023-01-29T04:25:16.165Z,27.98
2023-01-29T04:27:44.076Z,28.08
2023-01-29T04:30:11.928Z,27.98
2023-01-29T04:32:40.020Z,27.65
2023-01-29T04:35:07.937Z,28.00
2023-01-29T04:37:35.813Z,27.98
2023-01-29T04:40:03.680Z,27.89
2023-01-29T04:42:31.684Z,27.82
2023-01-29T04:44:59.561Z,28.23
2023-01-29T04:47:27.574Z,28.07
2023-01-29T04:49:55.490Z,27.88
2023-01-29T04:52:23.373Z,27.84
2023-01-29T04:54:51.321Z,27.82
2023-01-29T04:57:19.178Z,27.90
2023-01-29T04:59:47.055Z,27.84
2023-01-29T05:02:14.984Z,28.21
2023-01-29T05:04:42.800Z,27.85
2023-01-29T05:07:10.644Z,28.05
2023-01-29T05:09:38.511Z,27.91
2023-01-29T05:12:06.401Z,28.09
2023-01-29T05:14:34.249Z,27.75
2023-01-29T05:17:02.144Z,28.46
2023-01-29T05:19:29.976Z,28.55
2023-01-29T05:21:57.815Z,28.50
2023-01-29T05:24:25.718Z,28.46
2023-01-29T05:27:11.118Z,28.54
2023-01-29T05:29:39.096Z,28.98
2023-01-29T05:32:07.064Z,28.91
2023-01-29T05:34:34.984Z,28.58
2023-01-29T05:37:03.093Z,29.12
2023-01-29T05:39:30.946Z,28.94
2023-01-29T05:41:58.878Z,28.42
2023-01-29T05:44:26.729Z,28.79
2023-01-29T05:46:54.675Z,29.05
2023-01-29T05:49:22.799Z,28.39
2023-01-29T05:51:50.771Z,27.80
2023-01-29T05:54:18.658Z,26.71
2023-01-29T05:56:46.563Z,24.83
2023-01-29T05:59:14.556Z,23.42
2023-01-29T06:01:42.508Z,22.51
2023-01-29T06:04:10.391Z,21.89
2023-01-29T06:06:38.298Z,21.26
2023-01-29T06:09:06.196Z,17.51
2023-01-29T06:11:34.113Z,11.96
2023-01-29T06:14:01.958Z,9.34
2023-01-29T06:16:29.981Z,7.46
2023-01-29T06:18:57.903Z,6.41
2023-01-29T06:21:25.845Z,5.53
2023-01-29T06:23:53.843Z,5.32
2023-01-29T06:26:21.823Z,4.88
2023-01-29T06:28:49.752Z,4.82
2023-01-29T06:31:38.292Z,4.59
2023-01-29T06:34:06.670Z,4.64
2023-01-29T06:36:34.621Z,4.04
2023-01-29T06:39:02.540Z,4.64
2023-01-29T06:41:30.447Z,4.58
2023-01-29T06:43:58.381Z,4.58
2023-01-29T06:46:26.345Z,4.40
2023-01-29T06:48:54.236Z,4.36
2023-01-29T06:51:23.308Z,4.54
2023-01-29T06:53:51.372Z,5.04
2023-01-29T06:56:19.339Z,5.15
2023-01-29T06:58:47.293Z,6.16
2023-01-29T07:01:29.258Z,6.66
2023-01-29T07:04:03.157Z,7.72
2023-01-29T07:06:30.998Z,8.61
2023-01-29T07:08:58.992Z,9.41
2023-01-29T07:11:26.891Z,9.90
2023-01-29T07:13:54.777Z,11.10
2023-01-29T07:16:23.584Z,11.91
2023-01-29T07:18:51.515Z,12.46
2023-01-29T07:21:19.552Z,13.63
2023-01-29T07:23:47.415Z,14.52
2023-01-29T07:26:15.308Z,15.12
2023-01-29T07:28:43.216Z,15.28
2023-01-29T07:31:11.131Z,16.06
2023-01-29T07:33:39.132Z,16.78
2023-01-29T07:36:06.982Z,17.16
2023-01-29T07:38:34.941Z,17.93
2023-01-29T07:41:03.372Z,18.17
2023-01-29T07:43:31.471Z,18.78
2023-01-29T07:45:59.394Z,19.35
2023-01-29T07:48:27.282Z,19.83
2023-01-29T07:50:55.180Z,20.17
2023-01-29T07:53:23.060Z,20.83
2023-01-29T07:55:51.011Z,20.96
2023-01-29T07:58:18.925Z,21.09
2023-01-29T08:00:46.831Z,18.17
2023-01-29T08:03:16.285Z,13.42
2023-01-29T08:05:44.152Z,10.47
2023-01-29T08:08:12.103Z,8.98
2023-01-29T08:10:40.034Z,8.42
2023-01-29T08:13:07.981Z,7.35
2023-01-29T08:15:38.016Z,6.60
2023-01-29T08:18:06.942Z,5.68
2023-01-29T08:20:34.949Z,5.36
2023-01-29T08:23:03.008Z,5.46
2023-01-29T08:25:31.222Z,5.55
2023-01-29T08:27:59.371Z,6.11
2023-01-29T08:30:27.269Z,6.79
2023-01-29T08:32:55.157Z,7.45
2023-01-29T08:35:23.118Z,8.29
2023-01-29T08:37:50.997Z,9.17
2023-01-29T08:40:19.196Z,9.93
2023-01-29T08:42:47.361Z,10.89
2023-01-29T08:45:15.280Z,11.10
2023-01-29T08:47:43.353Z,12.39
2023-01-29T08:50:11.228Z,13.00
2023-01-29T08:52:39.116Z,13.71
2023-01-29T08:55:06.954Z,14.84
2023-01-29T08:57:34.856Z,15.28
2023-01-29T09:00:02.799Z,15.81
2023-01-29T09:02:30.746Z,16.41
2023-01-29T09:04:58.685Z,16.88
2023-01-29T09:07:26.878Z,17.28
2023-01-29T09:09:55.492Z,17.79
2023-01-29T09:12:23.311Z,18.42
2023-01-29T09:14:51.207Z,18.71
2023-01-29T09:17:19.077Z,19.24
2023-01-29T09:19:46.895Z,19.76
2023-01-29T09:22:14.898Z,20.39
2023-01-29T09:24:42.742Z,20.59
2023-01-29T09:27:11.055Z,20.74
2023-01-29T09:29:39.071Z,21.15
2023-01-29T09:32:07.168Z,21.60
2023-01-29T09:34:35.145Z,21.39
2023-01-29T09:37:03.043Z,21.54
2023-01-29T09:39:30.943Z,21.64
2023-01-29T09:41:58.825Z,21.84
2023-01-29T09:44:26.670Z,22.54
2023-01-29T09:46:54.959Z,22.39
2023-01-29T09:49:22.836Z,22.39
2023-01-29T09:51:51.373Z,22.65
2023-01-29T09:54:19.245Z,23.38
2023-01-29T09:56:47.155Z,23.24
2023-01-29T09:59:15.024Z,23.63
2023-01-29T10:01:42.979Z,23.53
2023-01-29T10:04:10.979Z,23.84
2023-01-29T10:06:38.824Z,24.34
2023-01-29T10:09:06.687Z,24.62
2023-01-29T10:11:34.563Z,24.63
2023-01-29T10:14:02.416Z,24.91
2023-01-29T10:16:30.407Z,24.62
2023-01-29T10:18:58.374Z,25.15
2023-01-29T10:21:26.835Z,24.90
2023-01-29T10:23:54.916Z,25.11
2023-01-29T10:26:22.871Z,25.11
2023-01-29T10:28:50.923Z,25.28
2023-01-29T10:31:19.195Z,25.71
2023-01-29T10:34:01.408Z,25.38
2023-01-29T10:36:30.489Z,25.63
2023-01-29T10:38:58.319Z,25.85
2023-01-29T10:41:26.169Z,25.82
2023-01-29T10:43:54.052Z,25.68
2023-01-29T10:46:21.847Z,25.67
2023-01-29T10:48:49.734Z,26.29
2023-01-29T10:51:17.582Z,26.07
2023-01-29T10:53:45.527Z,26.32
2023-01-29T10:56:22.390Z,26.18
2023-01-29T10:58:50.981Z,26.38
2023-01-29T11:01:18.943Z,26.22
2023-01-29T11:03:46.829Z,26.58
2023-01-29T11:06:14.665Z,26.26
2023-01-29T11:08:42.535Z,26.64
2023-01-29T11:11:10.527Z,26.79
2023-01-29T11:13:38.412Z,27.05
2023-01-29T11:16:06.257Z,26.90
2023-01-29T11:18:34.143Z,27.16
2023-01-29T11:21:02.279Z,27.21
2023-01-29T11:23:30.268Z,26.94
2023-01-29T11:25:58.441Z,27.10
2023-01-29T11:28:26.393Z,27.24
2023-01-29T11:30:54.367Z,27.38
2023-01-29T11:33:22.313Z,27.12
2023-01-29T11:35:50.462Z,27.43
2023-01-29T11:38:18.551Z,27.55
2023-01-29T11:40:46.530Z,27.51
2023-01-29T11:43:14.392Z,27.64
2023-01-29T11:45:42.370Z,27.24
2023-01-29T11:48:10.169Z,27.53
2023-01-29T11:50:41.344Z,27.53
2023-01-29T11:53:09.164Z,27.76
2023-01-29T11:55:49.954Z,27.35
2023-01-29T11:58:18.551Z,27.41
2023-01-29T12:00:46.390Z,27.49
2023-01-29T12:03:14.232Z,27.72
2023-01-29T12:05:42.148Z,27.88
2023-01-29T12:08:09.986Z,27.66
2023-01-29T12:10:38.004Z,27.63
2023-01-29T12:13:05.856Z,27.73
2023-01-29T12:15:33.867Z,27.77
2023-01-29T12:18:01.716Z,27.59
2023-01-29T12:20:29.567Z,27.55
2023-01-29T12:22:57.466Z,27.84
2023-01-29T12:25:25.297Z,28.14
2023-01-29T12:27:53.284Z,27.77
2023-01-29T12:30:21.154Z,27.82
2023-01-29T12:32:49.834Z,27.94
2023-01-29T12:35:17.809Z,27.99
2023-01-29T12:37:45.643Z,28.02
2023-01-29T12:40:13.516Z,28.19
2023-01-29T12:42:41.428Z,28.16
2023-01-29T12:45:10.959Z,28.55
2023-01-29T12:47:38.823Z,18.05
2023-01-29T12:50:06.786Z,11.00
2023-01-29T12:52:34.833Z,8.39
2023-01-29T12:55:02.731Z,6.89
2023-01-29T12:57:30.676Z,5.74
2023-01-29T12:59:58.587Z,5.49
2023-01-29T13:02:26.586Z,4.99
2023-01-29T13:04:54.473Z,5.04
2023-01-29T13:07:23.762Z,4.46
2023-01-29T13:09:51.961Z,4.18
2023-01-29T13:12:19.896Z,3.85
2023-01-29T13:14:47.759Z,4.51
2023-01-29T13:17:15.800Z,4.87
2023-01-29T13:19:43.732Z,5.47
2023-01-29T13:22:11.583Z,6.26
2023-01-29T13:24:39.460Z,7.38
2023-01-29T13:27:07.304Z,7.58
2023-01-29T13:29:35.224Z,8.81
2023-01-29T13:32:03.128Z,9.75
2023-01-29T13:34:31.802Z,10.27
2023-01-29T13:36:59.686Z,11.31
2023-01-29T13:39:27.768Z,12.02
2023-01-29T13:41:55.643Z,12.35
2023-01-29T13:44:23.541Z,13.59
2023-01-29T13:46:51.440Z,14.17
2023-01-29T13:49:19.391Z,15.06
2023-01-29T13:51:47.277Z,16.09
2023-01-29T13:54:15.125Z,16.32
2023-01-29T13:56:43.187Z,17.03
2023-01-29T13:59:11.128Z,17.56
2023-01-29T14:01:39.030Z,18.03
2023-01-29T14:04:06.901Z,18.53
2023-01-29T14:06:34.893Z,19.01
2023-01-29T14:09:02.764Z,19.61
2023-01-29T14:11:30.631Z,19.53
2023-01-29T14:13:58.479Z,18.19
2023-01-29T14:16:26.403Z,17.69
2023-01-29T14:18:55.529Z,16.97
2023-01-29T14:21:24.049Z,15.79
2023-01-29T14:23:51.918Z,15.12
2023-01-29T14:26:19.890Z,14.79
2023-01-29T14:28:47.765Z,14.34
2023-01-29T14:31:15.712Z,13.81
2023-01-29T14:33:44.767Z,14.10
2023-01-29T14:36:12.654Z,14.09
2023-01-29T14:38:40.594Z,13.87
2023-01-29T14:41:08.488Z,14.26
2023-01-29T14:43:36.343Z,13.80
2023-01-29T14:46:04.196Z,14.51
2023-01-29T14:48:32.143Z,14.33
2023-01-29T14:51:00.529Z,14.39
2023-01-29T14:53:28.390Z,15.01
2023-01-29T14:55:56.297Z,14.91
2023-01-29T14:58:24.152Z,14.94
2023-01-29T15:00:52.016Z,15.09
2023-01-29T15:03:19.915Z,15.27
2023-01-29T15:05:47.803Z,15.34
2023-01-29T15:08:15.650Z,15.46
2023-01-29T15:10:43.501Z,14.04
2023-01-29T15:13:11.438Z,12.43
2023-01-29T15:15:39.655Z,10.56
2023-01-29T15:18:07.542Z,9.41
2023-01-29T15:20:35.479Z,8.83
2023-01-29T15:23:03.596Z,8.18
2023-01-29T15:25:31.483Z,7.89
2023-01-29T15:27:59.360Z,8.23
2023-01-29T15:30:27.242Z,8.47
2023-01-29T15:32:55.058Z,9.18
2023-01-29T15:35:23.010Z,10.03
2023-01-29T15:37:50.983Z,10.45
2023-01-29T15:40:18.867Z,11.20
2023-01-29T15:42:48.418Z,12.00
2023-01-29T15:45:16.611Z,12.92
2023-01-29T15:47:44.725Z,13.55
2023-01-29T15:50:12.680Z,14.54
2023-01-29T15:52:40.599Z,14.99
2023-01-29T15:55:08.879Z,15.53
2023-01-29T15:57:37.575Z,16.63
2023-01-29T16:00:05.544Z,16.91
2023-01-29T16:02:33.439Z,18.01
2023-01-29T16:05:01.433Z,18.20
2023-01-29T16:07:29.319Z,18.64
2023-01-29T16:09:57.283Z,19.06
2023-01-29T16:12:25.171Z,19.70
2023-01-29T16:14:53.190Z,20.66
2023-01-29T16:17:21.099Z,20.64
2023-01-29T16:19:48.991Z,19.63
2023-01-29T16:22:16.994Z,17.75
2023-01-29T16:24:47.871Z,13.73
2023-01-29T16:27:15.958Z,10.83
2023-01-29T16:29:43.865Z,9.67
2023-01-29T16:32:14.051Z,9.69
2023-01-29T16:34:41.975Z,9.34
2023-01-29T16:37:10.144Z,8.69
2023-01-29T16:39:38.212Z,7.71
2023-01-29T16:42:06.220Z,6.92
2023-01-29T16:44:35.615Z,6.81
2023-01-29T16:47:03.610Z,6.64
2023-01-29T16:49:31.725Z,7.05
2023-01-29T16:51:59.938Z,7.78
2023-01-29T16:54:27.984Z,8.00
2023-01-29T16:56:55.954Z,8.69
2023-01-29T16:59:26.953Z,9.43
2023-01-29T17:01:54.952Z,9.92
2023-01-29T17:04:22.980Z,10.63
2023-01-29T17:06:51.053Z,11.02
2023-01-29T17:09:18.935Z,12.43
2023-01-29T17:11:46.951Z,12.72
2023-01-29T17:14:14.820Z,13.67
2023-01-29T17:16:42.740Z,14.54
2023-01-29T17:19:10.836Z,14.98
2023-01-29T17:21:39.020Z,15.63
2023-01-29T17:24:07.233Z,16.29
2023-01-29T17:26:35.171Z,17.27
2023-01-29T17:29:03.151Z,17.84
2023-01-29T17:31:31.274Z,18.31
2023-01-29T17:33:59.325Z,18.60
2023-01-29T17:36:27.322Z,18.79
2023-01-29T17:38:55.186Z,19.62
2023-01-29T17:41:23.312Z,20.09
2023-01-29T17:43:51.975Z,20.53
2023-01-29T17:46:20.060Z,20.69
2023-01-29T17:48:49.252Z,21.53
2023-01-29T17:51:17.337Z,21.87
2023-01-29T17:53:46.597Z,22.04
2023-01-29T17:56:15.204Z,22.49
2023-01-29T17:58:43.271Z,22.59
2023-01-29T18:01:11.129Z,22.92
2023-01-29T18:03:39.194Z,23.10
2023-01-29T18:06:07.162Z,23.63
2023-01-29T18:08:35.394Z,23.42
2023-01-29T18:11:03.515Z,23.73
2023-01-29T18:13:31.482Z,23.74
2023-01-29T18:15:59.428Z,23.85
2023-01-29T18:18:27.436Z,24.14
2023-01-29T18:20:55.370Z,23.58
2023-01-29T18:23:23.459Z,17.54
2023-01-29T18:25:52.873Z,12.69
2023-01-29T18:28:20.786Z,10.13
2023-01-29T18:30:48.654Z,9.73
2023-01-29T18:33:16.955Z,9.44
2023-01-29T18:35:44.921Z,8.26
2023-01-29T18:38:13.188Z,7.26
2023-01-29T18:40:41.216Z,6.44
2023-01-29T18:43:09.115Z,5.76
2023-01-29T18:45:37.169Z,5.88
2023-01-29T18:48:05.182Z,5.59
2023-01-29T18:50:33.049Z,5.91
2023-01-29T18:53:01.029Z,6.18
2023-01-29T18:55:29.079Z,6.81
2023-01-29T18:58:26.559Z,7.47
2023-01-29T19:00:46.126Z,8.34
2023-01-29T19:03:14.454Z,9.26
2023-01-29T19:05:42.466Z,10.02
2023-01-29T19:08:10.394Z,10.83
2023-01-29T19:10:38.389Z,11.21
2023-01-29T19:13:06.737Z,12.13
2023-01-29T19:15:35.167Z,13.25
2023-01-29T19:18:04.345Z,13.60
2023-01-29T19:20:32.316Z,14.54
2023-01-29T19:23:00.313Z,14.74
2023-01-29T19:25:28.321Z,15.71
2023-01-29T19:27:56.395Z,16.50
2023-01-29T19:30:24.433Z,16.66
2023-01-29T19:32:52.330Z,17.53
2023-01-29T19:35:20.410Z,18.23
2023-01-29T19:37:48.432Z,18.65
2023-01-29T19:40:16.408Z,19.19
2023-01-29T19:42:44.393Z,19.41
2023-01-29T19:45:12.394Z,20.04
2023-01-29T19:47:40.617Z,20.17
2023-01-29T19:50:08.688Z,20.71
2023-01-29T19:52:52.138Z,20.46
2023-01-29T19:55:20.450Z,21.61
2023-01-29T19:57:48.663Z,21.58
2023-01-29T20:00:17.619Z,22.14
2023-01-29T20:02:45.727Z,22.53
2023-01-29T20:05:13.764Z,22.28
2023-01-29T20:07:42.683Z,22.67
2023-01-29T20:10:11.797Z,22.87
2023-01-29T20:12:39.717Z,22.87
2023-01-29T20:15:07.921Z,23.17
2023-01-29T20:17:35.847Z,23.86
2023-01-29T20:20:04.248Z,24.03
2023-01-29T20:22:32.278Z,24.29
2023-01-29T20:25:00.193Z,24.06
2023-01-29T20:27:28.408Z,24.33
2023-01-29T20:29:56.326Z,24.47
2023-01-29T20:32:24.218Z,24.40
2023-01-29T20:34:53.401Z,24.50
2023-01-29T20:37:21.527Z,24.64
2023-01-29T20:39:49.457Z,24.44
2023-01-29T20:42:17.410Z,24.97
2023-01-29T20:44:45.488Z,24.99
2023-01-29T20:47:14.431Z,24.90
2023-01-29T20:49:42.365Z,24.65
2023-01-29T20:52:10.861Z,25.27
2023-01-29T20:54:38.724Z,25.31
2023-01-29T20:57:06.948Z,25.22
2023-01-29T20:59:34.831Z,25.60
2023-01-29T21:02:02.806Z,25.83
2023-01-29T21:04:31.780Z,25.82
2023-01-29T21:06:59.768Z,25.84
2023-01-29T21:09:27.974Z,25.86
2023-01-29T21:11:56.090Z,26.24
2023-01-29T21:14:24.025Z,26.30
2023-01-29T21:16:51.999Z,26.04
2023-01-29T21:19:20.057Z,26.49
2023-01-29T21:21:47.991Z,26.31
2023-01-29T21:24:18.785Z,26.28
2023-01-29T21:26:46.759Z,26.35
2023-01-29T21:29:14.706Z,26.34
2023-01-29T21:31:42.585Z,26.27
2023-01-29T21:34:10.516Z,26.55
2023-01-29T21:36:38.435Z,26.98
2023-01-29T21:39:16.695Z,26.88
2023-01-29T21:42:01.842Z,26.99
2023-01-29T21:44:29.668Z,27.04
2023-01-29T21:46:57.584Z,27.08
2023-01-29T21:49:25.517Z,27.06
2023-01-29T21:51:56.236Z,27.01
2023-01-29T21:54:24.181Z,27.03
2023-01-29T21:56:54.367Z,27.17
2023-01-29T21:59:22.127Z,27.19
2023-01-29T22:01:50.174Z,27.44
2023-01-29T22:04:17.985Z,27.21
2023-01-29T22:06:45.724Z,27.53
2023-01-29T22:09:13.839Z,27.23
2023-01-29T22:11:41.892Z,27.37
2023-01-29T22:14:09.665Z,27.48
2023-01-29T22:16:37.496Z,27.46
2023-01-29T22:19:05.301Z,27.63
2023-01-29T22:21:35.659Z,27.64
2023-01-29T22:24:03.685Z,27.49
2023-01-29T22:26:32.217Z,27.67
2023-01-29T22:29:00.004Z,27.81
2023-01-29T22:31:27.824Z,28.00
2023-01-29T22:33:55.584Z,28.07
2023-01-29T22:36:23.389Z,27.97
2023-01-29T22:38:51.131Z,27.83
2023-01-29T22:41:18.918Z,27.94
2023-01-29T22:43:46.802Z,27.98
2023-01-29T22:46:14.646Z,28.25
2023-01-29T22:48:42.498Z,28.40
2023-01-29T22:51:13.912Z,28.32
2023-01-29T22:53:41.706Z,28.45
2023-01-29T22:56:09.439Z,28.26
2023-01-29T22:58:37.200Z,27.97
2023-01-29T23:01:04.951Z,28.23
2023-01-29T23:03:32.739Z,27.91
2023-01-29T23:06:00.511Z,27.89
2023-01-29T23:08:28.258Z,27.89
2023-01-29T23:11:13.922Z,28.17
2023-01-29T23:13:42.102Z,27.92
2023-01-29T23:16:09.990Z,28.35
2023-01-29T23:18:37.797Z,28.55
2023-01-29T23:21:05.613Z,27.90
2023-01-29T23:23:33.393Z,28.42
2023-01-29T23:26:18.509Z,28.20
2023-01-29T23:28:46.295Z,28.13
2023-01-29T23:31:14.024Z,27.75
2023-01-29T23:33:41.733Z,28.40
2023-01-29T23:36:09.471Z,28.73
2023-01-29T23:38:37.407Z,28.29
2023-01-29T23:41:05.210Z,28.31
2023-01-29T23:43:32.950Z,28.29
2023-01-29T23:46:00.706Z,28.63
2023-01-29T23:48:28.442Z,28.61
2023-01-29T23:50:56.202Z,28.11
2023-01-29T23:53:24.026Z,28.23
2023-01-29T23:55:51.735Z,28.45
2023-01-29T23:58:19.454Z,28.19
